createdAt,value
2019-03-03T00:02:12.966Z,100284.89
2019-03-03T00:04:45.333Z,100291.45
2019-03-03T00:07:18.115Z,100286.27
2019-03-03T00:09:50.592Z,100273.63
2019-03-03T00:12:22.965Z,100272.73
2019-03-03T00:14:55.335Z,100269.73
2019-03-03T00:17:28.018Z,100257.66
2019-03-03T00:20:00.398Z,100256.44
2019-03-03T00:22:32.766Z,100249.47
2019-03-03T00:25:05.745Z,100247.28
2019-03-03T00:27:38.121Z,100246.52
2019-03-03T00:30:21.956Z,100248.71
2019-03-03T00:32:54.331Z,100248.22
2019-03-03T00:35:26.807Z,100247.77
2019-03-03T00:38:06.552Z,100249.20
2019-03-03T00:40:56.012Z,100246.61
2019-03-03T00:43:28.086Z,100249.25
2019-03-03T00:46:09.164Z,100253.22
2019-03-03T00:48:59.253Z,100243.17
2019-03-03T00:51:36.232Z,100248.84
2019-03-03T00:54:10.452Z,100245.48
2019-03-03T00:57:02.785Z,100243.30
2019-03-03T00:59:39.661Z,100238.19
2019-03-03T01:02:11.726Z,100241.64
2019-03-03T01:04:43.794Z,100243.91
2019-03-03T01:07:20.668Z,100232.24
2019-03-03T01:09:54.198Z,100235.64
2019-03-03T01:12:40.977Z,100235.64
2019-03-03T01:15:18.478Z,100229.03
2019-03-03T01:18:08.969Z,100225.01
2019-03-03T01:20:54.858Z,100219.23
2019-03-03T01:23:31.437Z,100228.41
2019-03-03T01:26:04.002Z,100230.39
2019-03-03T01:28:36.379Z,100226.85
2019-03-03T01:31:08.856Z,100221.27
2019-03-03T01:33:41.219Z,100222.30
2019-03-03T01:36:13.905Z,100218.31
2019-03-03T01:38:46.068Z,100213.53
2019-03-03T01:41:18.438Z,100208.22
2019-03-03T01:43:50.912Z,100199.45
2019-03-03T01:46:23.295Z,100193.11
2019-03-03T01:48:55.221Z,100187.60
2019-03-03T01:51:27.613Z,100188.89
2019-03-03T01:54:00.308Z,100185.50
2019-03-03T01:56:32.784Z,100191.48
2019-03-03T01:59:05.150Z,100191.03
2019-03-03T02:01:37.625Z,100191.34
2019-03-03T02:04:10.096Z,100185.41
2019-03-03T02:06:42.568Z,100184.49
2019-03-03T02:09:14.953Z,100187.89
2019-03-03T02:11:47.312Z,100179.63
2019-03-03T02:20:20.253Z,100172.84
2019-03-03T02:22:57.918Z,100163.36
2019-03-03T02:26:06.723Z,100150.95
2019-03-03T02:29:27.161Z,100147.82
2019-03-03T02:32:11.508Z,100146.45
2019-03-03T02:35:08.407Z,100138.41
2019-03-03T02:37:45.454Z,100145.72
2019-03-03T02:40:25.949Z,100135.02
2019-03-03T02:50:23.636Z,100136.55
2019-03-03T02:59:18.201Z,100124.13
2019-03-03T03:11:51.036Z,100108.12
2019-03-03T03:24:23.258Z,100085.81
2019-03-03T03:27:00.678Z,100085.91
2019-03-03T03:33:06.546Z,100079.88
2019-03-03T03:35:56.788Z,100075.53
2019-03-03T03:41:47.522Z,100073.16
2019-03-03T03:44:28.160Z,100076.28
2019-03-03T03:47:15.966Z,100065.90
2019-03-03T03:50:03.952Z,100067.20
2019-03-03T03:52:51.371Z,100050.34
2019-03-03T03:55:43.949Z,100043.33
2019-03-03T03:58:41.067Z,100037.81
2019-03-03T04:01:23.318Z,100020.83
2019-03-03T04:04:03.381Z,100018.05
2019-03-03T04:06:57.771Z,100029.19
2019-03-03T04:09:38.318Z,100038.86
2019-03-03T04:12:34.555Z,100021.77
2019-03-03T04:15:20.092Z,100018.77
2019-03-03T04:18:07.874Z,100010.09
2019-03-03T04:21:11.064Z,100007.98
2019-03-03T04:24:19.975Z,100002.06
2019-03-03T04:27:12.050Z,99995.70
2019-03-03T04:32:45.478Z,99987.35
2019-03-03T04:35:36.768Z,99991.25
2019-03-03T04:38:28.790Z,99979.38
2019-03-03T04:41:09.275Z,99976.86
2019-03-03T04:47:08.016Z,99988.41
2019-03-03T04:49:52.048Z,100000.75
2019-03-03T04:56:06.041Z,99996.84
2019-03-03T05:02:25.576Z,99979.47
2019-03-03T05:05:10.280Z,99977.47
2019-03-03T05:08:10.639Z,99982.89
2019-03-03T05:11:00.674Z,99981.81
2019-03-03T05:13:53.210Z,99980.25
2019-03-03T05:16:32.984Z,99979.11
2019-03-03T05:19:24.775Z,99973.14
2019-03-03T05:22:06.820Z,99966.27
2019-03-03T05:24:42.545Z,99963.34
2019-03-03T05:27:19.552Z,99961.70
2019-03-03T05:29:53.677Z,99956.69
2019-03-03T05:32:33.000Z,99957.14
2019-03-03T05:35:12.936Z,99952.53
2019-03-03T05:37:45.473Z,99959.06
2019-03-03T05:40:24.751Z,99945.66
2019-03-03T05:43:03.573Z,99947.89
2019-03-03T05:45:56.163Z,99952.27
2019-03-03T05:48:40.509Z,99948.51
2019-03-03T05:51:13.436Z,99935.70
2019-03-03T05:53:52.111Z,99934.84
2019-03-03T05:56:26.901Z,99940.34
2019-03-03T05:58:59.713Z,99935.39
2019-03-03T06:01:36.701Z,99931.66
2019-03-03T06:05:00.252Z,99934.39
2019-03-03T06:07:31.737Z,99922.39
2019-03-03T06:10:21.064Z,99928.70
2019-03-03T06:25:46.968Z,99935.44
2019-03-03T06:28:36.110Z,99939.56
2019-03-03T06:31:09.994Z,99928.72
2019-03-03T07:35:42.268Z,99868.16
2019-03-03T08:00:09.633Z,99859.88
2019-03-03T08:03:03.028Z,99859.17
2019-03-03T08:05:57.503Z,99862.92
2019-03-03T08:08:55.669Z,99861.01
2019-03-03T08:14:43.967Z,99854.39
2019-03-03T08:17:43.884Z,99852.91
2019-03-03T08:20:35.499Z,99836.98
2019-03-03T08:23:41.852Z,99832.10
2019-03-03T08:26:07.066Z,99835.68
2019-03-03T08:28:44.061Z,99838.00
2019-03-03T08:31:18.750Z,99832.94
2019-03-03T08:33:57.166Z,99840.01
2019-03-03T08:36:43.321Z,99837.92
2019-03-03T08:39:24.589Z,99831.05
2019-03-03T08:42:02.784Z,99817.66
2019-03-03T08:44:40.631Z,99822.70
2019-03-03T08:47:20.670Z,99808.22
2019-03-03T08:49:58.541Z,99816.24
2019-03-03T08:52:34.896Z,99809.36
2019-03-03T08:55:24.062Z,99811.81
2019-03-03T08:58:11.791Z,99807.11
2019-03-03T09:01:00.849Z,99803.44
2019-03-03T09:03:37.512Z,99803.67
2019-03-03T09:06:18.649Z,99812.60
2019-03-03T09:08:58.287Z,99800.46
2019-03-03T09:11:44.213Z,99789.67
2019-03-03T09:14:23.934Z,99780.51
2019-03-03T09:17:00.435Z,99783.12
2019-03-03T09:19:47.635Z,99788.36
2019-03-03T09:22:30.884Z,99790.08
2019-03-03T09:25:11.914Z,99797.42
2019-03-03T09:28:05.117Z,99793.97
2019-03-03T09:30:47.840Z,99784.85
2019-03-03T09:33:20.416Z,99789.66
2019-03-03T09:36:05.957Z,99785.41
2019-03-03T09:38:50.027Z,99783.68
2019-03-03T09:41:34.773Z,99775.56
2019-03-03T09:44:20.827Z,99771.72
2019-03-03T09:47:00.017Z,99760.13
2019-03-03T09:49:58.934Z,99772.06
2019-03-03T09:52:49.054Z,99763.88
2019-03-03T09:55:32.004Z,99766.59
2019-03-03T09:58:09.916Z,99762.84
2019-03-03T10:00:45.200Z,99752.84
2019-03-03T10:03:32.332Z,99753.84
2019-03-03T10:06:23.058Z,99752.53
2019-03-03T10:09:42.999Z,99751.33
2019-03-03T10:12:29.406Z,99749.08
2019-03-03T10:18:51.854Z,99742.41
2019-03-03T10:21:50.084Z,99737.66
2019-03-03T10:24:30.537Z,99731.98
2019-03-03T10:30:35.710Z,99740.25
2019-03-03T10:33:18.420Z,99738.92
2019-03-03T10:38:54.612Z,99737.58
2019-03-03T10:41:39.306Z,99743.73
2019-03-03T10:44:27.099Z,99746.83
2019-03-03T10:47:15.075Z,99736.34
2019-03-03T10:49:55.992Z,99730.72
2019-03-03T10:52:43.770Z,99735.05
2019-03-03T10:55:49.968Z,99728.53
2019-03-03T10:58:29.975Z,99744.77
2019-03-03T11:01:09.134Z,99715.95
2019-03-03T11:03:55.839Z,99715.13
2019-03-03T11:06:34.232Z,99702.08
2019-03-03T11:09:19.913Z,99700.80
2019-03-03T11:12:14.640Z,99696.06
2019-03-03T11:15:18.193Z,99693.95
2019-03-03T11:18:07.331Z,99690.48
2019-03-03T11:24:18.254Z,99695.35
2019-03-03T11:27:15.850Z,99676.10
2019-03-03T11:34:15.152Z,99666.97
2019-03-03T11:47:34.716Z,99661.28
2019-03-03T11:54:45.545Z,99673.54
2019-03-03T11:57:54.125Z,99665.66
2019-03-03T12:11:16.043Z,99663.02
2019-03-03T13:30:33.476Z,99622.70
2019-03-03T13:33:09.182Z,99613.03
2019-03-03T13:36:00.793Z,99615.60
2019-03-03T13:38:36.950Z,99622.98
2019-03-03T13:41:19.033Z,99630.80
2019-03-03T14:07:04.284Z,99610.34
2019-03-03T14:09:40.458Z,99606.41
2019-03-03T14:16:01.275Z,99611.63
2019-03-03T14:51:11.835Z,99622.84
2019-03-03T14:54:06.000Z,99600.13
2019-03-03T14:56:50.369Z,99603.17
2019-03-03T16:11:16.450Z,99563.64
2019-03-03T16:16:58.588Z,99560.53
2019-03-03T16:19:44.759Z,99559.68
2019-03-03T16:37:06.031Z,99555.70
2019-03-03T17:20:45.959Z,99540.56
2019-03-03T17:23:31.534Z,99532.28
2019-03-03T17:26:12.516Z,99524.45
2019-03-03T17:28:52.132Z,99527.50
2019-03-03T17:31:30.886Z,99524.84
2019-03-03T17:34:23.847Z,99524.84
2019-03-03T17:37:11.523Z,99532.73
2019-03-03T18:58:57.222Z,99464.45
2019-03-03T19:09:45.495Z,99439.17
2019-03-03T19:12:33.637Z,99432.62
2019-03-03T19:15:24.224Z,99433.52
2019-03-03T19:37:33.939Z,99434.42
2019-03-03T20:06:30.278Z,99390.02
2019-03-03T20:09:09.509Z,99403.98
2019-03-03T20:14:56.923Z,99394.36
2019-03-03T20:20:11.210Z,99383.92
2019-03-03T20:22:54.838Z,99388.70
2019-03-03T20:25:30.956Z,99387.84
2019-03-03T20:28:11.308Z,99389.13
2019-03-03T20:30:49.819Z,99383.02
2019-03-03T20:33:26.629Z,99390.44
2019-03-03T20:36:01.043Z,99386.54
2019-03-03T20:38:38.796Z,99384.33
2019-03-03T20:41:16.079Z,99383.05
2019-03-03T20:43:54.884Z,99377.36
2019-03-03T20:46:30.042Z,99384.78
2019-03-03T20:49:06.189Z,99385.64
2019-03-03T20:51:52.703Z,99375.17
2019-03-03T20:54:27.322Z,99367.77
2019-03-03T20:57:00.144Z,99367.75
2019-03-03T20:59:34.885Z,99367.32
2019-03-03T21:02:09.872Z,99365.16
2019-03-03T21:04:47.896Z,99349.88
2019-03-03T21:30:23.732Z,99338.98
2019-03-03T21:38:44.146Z,99321.50
2019-03-03T21:44:24.931Z,99319.73
2019-03-03T21:47:09.533Z,99326.28
2019-03-03T21:49:58.363Z,99304.95
2019-03-03T21:52:32.714Z,99307.13
2019-03-03T21:55:12.230Z,99299.29
2019-03-03T21:57:48.631Z,99301.88
2019-03-03T22:00:41.274Z,99297.54
2019-03-03T22:03:16.202Z,99297.97
2019-03-03T22:05:50.175Z,99294.92
2019-03-03T22:08:22.125Z,99301.02
2019-03-03T22:10:54.627Z,99291.40
2019-03-03T22:13:26.979Z,99294.50
2019-03-03T22:15:59.451Z,99292.73
2019-03-03T22:18:33.594Z,99289.64
2019-03-03T22:21:07.290Z,99284.85
2019-03-03T22:23:40.373Z,99295.75
2019-03-03T22:26:12.859Z,99283.11
2019-03-03T22:28:45.357Z,99288.77
2019-03-03T22:31:18.195Z,99274.83
2019-03-03T22:33:50.566Z,99279.20
2019-03-03T22:36:22.959Z,99283.95
2019-03-03T22:38:56.462Z,99266.09
2019-03-03T22:41:29.051Z,99262.20
2019-03-03T22:44:01.681Z,99270.46
2019-03-03T22:46:34.218Z,99263.94
2019-03-03T22:49:07.372Z,99261.74
2019-03-03T22:51:39.832Z,99263.94
2019-03-03T22:54:12.223Z,99258.72
2019-03-03T22:56:45.353Z,99251.72
2019-03-03T22:59:17.677Z,99263.92
2019-03-03T23:01:49.870Z,99252.16
2019-03-03T23:04:52.026Z,99247.81
2019-03-03T23:07:35.055Z,99246.95
2019-03-03T23:10:26.838Z,99238.64
2019-03-03T23:13:21.982Z,99239.08
2019-03-03T23:15:59.037Z,99244.75
2019-03-03T23:18:57.003Z,99236.48
2019-03-03T23:21:57.582Z,99232.10
2019-03-03T23:24:49.421Z,99226.87
2019-03-03T23:27:21.740Z,99226.42
2019-03-03T23:29:54.452Z,99220.77
2019-03-03T23:32:26.898Z,99218.59
2019-03-03T23:35:00.404Z,99215.55
2019-03-03T23:37:32.721Z,99226.03
2019-03-03T23:40:06.842Z,99220.77
2019-03-03T23:42:39.142Z,99209.87
2019-03-03T23:45:12.838Z,99213.34
2019-03-03T23:47:45.418Z,99209.42
2019-03-03T23:50:17.795Z,99196.78
2019-03-03T23:52:50.162Z,99208.57
2019-03-03T23:55:22.540Z,99206.81
2019-03-03T23:57:55.109Z,99200.29
